Portada
METAR-TAF:

METAR-TAF

Aeropuertos :

Aeropuerto Internacional de Nador

Nador, Marruecos

latitud: 34-59-20N, longitud: 003-01-42W, altitud: 175 m

Observación

El informe se hizo hace 1 hora y 14 minutos, a las 03:00 UTC
Viento 3 kt del sur-suroeste
Temperatura 15°C
Humedad 88%
Presión 1012 hPa
Visibilidad 10 km o más
Nubes dispersas a una altura de 2000 ft
Nubes dispersas a una altura de 8000 ft
lluvia ligera

METAR: GMMW 160300Z 20003KT 9999 -RA SCT020 SCT080 15/13 Q1012 NOSIG

Hora: 05:14 (04:14 UTC)

Pronóstico

El informe se hizo hace 5 horas y 14 minutos, a las 23:00 UTC
Pronóstico válido del 16 a las 00 UTC al 17 a las 06 UTC
Viento 2 kt con dirección variable
Visibilidad 10 km o más
Nubes dispersas a una altura de 2000 ft, Cumulus congestus.
Cielo nuboso a una altura de 10000 ft

TAF: GMMW 152300Z 1600/1706 VRB02KT 9999 SCT020TCU BKN100

Observaciones y pronósticos meteorológicos de más de 4000 aeropuertos (mensajes METAR y TAF).

Los puntos amarillos y rojos representan las estaciones disponibles.

Ponga el ratón en el punto deseado para ver el nombre de la estación.

Haga clic para ver las observaciones y los pronósticos meteorológicos.

Para cambiar el mapa : haga clic en los botones verdes con una cruz de color negro para hacer un zoom, en el botón verde con un guión para alejar o en las flechas verdes para mapas adyacentes.


METAR-TAF: